Time;durP1;ratioP1;P1;durP2;ratioP2;P2;SDS_P1;SDS_P2;PMS_P1;PMS_P2;Temp;Humidity;BMP_temperature;BMP_pressure;BME280_temperature;BME280_humidity;BME280_pressure;Samples;Min_cycle;Max_cycle;Signal;HPM_P1;HPM_P2
2021/12/06 00:01:23;;;;;;;52.25;39.35;;;3.20;93.20;;;;;;5016758;28;20037;-81
2021/12/06 00:04:38;;;;;;;52.97;39.40;;;3.30;93.40;;;;;;5018105;28;20046;-75
2021/12/06 00:07:14;;;;;;;52.20;37.97;;;3.30;93.40;;;;;;5036286;28;20029;-78
2021/12/06 00:09:40;;;;;;;52.83;38.80;;;3.20;93.40;;;;;;5039843;28;20112;-79
2021/12/06 00:12:06;;;;;;;48.22;36.78;;;3.20;93.30;;;;;;5033873;28;20053;-79
2021/12/06 00:14:39;;;;;;;50.15;37.20;;;3.20;93.30;;;;;;5023393;28;20041;-76
2021/12/06 00:17:09;;;;;;;47.92;36.10;;;3.20;93.30;;;;;;5039181;28;20105;-76
2021/12/06 00:19:36;;;;;;;47.67;36.33;;;3.20;93.30;;;;;;5040846;28;20037;-75
2021/12/06 00:22:05;;;;;;;49.45;36.38;;;3.20;93.20;;;;;;5041050;28;20026;-77
2021/12/06 00:24:31;;;;;;;50.30;36.53;;;3.20;93.20;;;;;;5042205;28;20099;-80
2021/12/06 00:26:57;;;;;;;43.88;34.95;;;3.20;93.20;;;;;;5042135;28;20053;-78
2021/12/06 00:29:23;;;;;;;48.78;37.97;;;3.20;93.10;;;;;;5045861;28;20037;-77
2021/12/06 00:31:50;;;;;;;46.15;37.58;;;3.30;93.00;;;;;;5041964;28;20039;-79
2021/12/06 00:34:18;;;;;;;42.33;33.88;;;3.20;92.80;;;;;;5041863;28;20049;-75
2021/12/06 00:37:15;;;;;;;41.50;32.35;;;3.20;92.80;;;;;;5043937;28;20041;-79
2021/12/06 00:39:39;;;;;;;42.60;33.35;;;3.30;92.70;;;;;;5041566;28;20038;-80
2021/12/06 00:42:05;;;;;;;40.75;31.85;;;3.30;92.70;;;;;;5041439;28;20060;-76
2021/12/06 00:44:30;;;;;;;42.20;32.90;;;3.30;92.50;;;;;;5041034;28;20040;-76
2021/12/06 00:46:56;;;;;;;45.28;34.47;;;3.40;92.50;;;;;;5038591;28;20038;-78
2021/12/06 00:49:22;;;;;;;45.53;33.05;;;3.40;92.50;;;;;;5034332;28;20037;-75
2021/12/06 00:51:47;;;;;;;44.75;35.22;;;3.40;92.50;;;;;;5036996;28;20030;-76
2021/12/06 00:54:15;;;;;;;45.60;35.33;;;3.50;92.50;;;;;;5024737;28;20040;-82
2021/12/06 00:56:41;;;;;;;44.08;34.58;;;3.50;92.50;;;;;;5022383;28;20034;-79
2021/12/06 00:59:07;;;;;;;47.83;35.13;;;3.50;92.50;;;;;;5024954;28;20160;-78
2021/12/06 01:01:33;;;;;;;51.50;36.78;;;3.60;92.50;;;;;;5023347;28;20046;-78
2021/12/06 01:03:59;;;;;;;52.90;37.78;;;3.60;92.50;;;;;;5039511;28;20029;-80
2021/12/06 01:06:24;;;;;;;47.38;35.85;;;3.60;92.50;;;;;;5043232;28;20038;-81
2021/12/06 01:08:50;;;;;;;50.58;37.88;;;3.60;92.50;;;;;;5042775;28;20040;-79
2021/12/06 01:11:16;;;;;;;49.15;37.40;;;3.60;92.60;;;;;;5040535;28;20057;-80
2021/12/06 01:13:42;;;;;;;55.80;39.85;;;3.60;92.50;;;;;;5044439;28;20048;-76
2021/12/06 01:16:08;;;;;;;51.83;36.72;;;3.60;92.60;;;;;;5040995;28;20388;-80
2021/12/06 01:18:34;;;;;;;49.30;37.33;;;3.60;92.60;;;;;;5042208;28;20056;-79
2021/12/06 01:21:10;;;;;;;52.38;38.10;;;3.70;92.70;;;;;;5043493;28;20523;-81
2021/12/06 01:23:55;;;;;;;51.10;36.65;;;3.70;92.70;;;;;;5043098;28;20366;-80
2021/12/06 01:26:36;;;;;;;48.15;35.53;;;3.80;92.70;;;;;;5042257;28;21984;-76
2021/12/06 01:29:15;;;;;;;49.92;35.33;;;3.80;92.70;;;;;;5042404;28;20049;-80
2021/12/06 01:39:39;;;;;;;53.22;37.65;;;3.80;92.90;;;;;;5041122;28;20043;-76
2021/12/06 01:42:07;;;;;;;54.47;37.88;;;3.70;93.00;;;;;;5044023;28;20061;-82
2021/12/06 01:44:35;;;;;;;53.15;37.10;;;3.80;93.00;;;;;;5044526;28;20045;-82
2021/12/06 01:47:09;;;;;;;49.45;36.00;;;3.80;93.10;;;;;;5043384;28;20088;-76
2021/12/06 01:49:41;;;;;;;54.83;37.25;;;3.80;93.10;;;;;;5043198;28;20052;-80
2021/12/06 01:52:26;;;;;;;50.83;36.35;;;3.80;93.10;;;;;;5043911;28;20099;-81
2021/12/06 01:54:54;;;;;;;49.85;37.60;;;3.80;93.10;;;;;;5046023;28;20064;-77
2021/12/06 01:57:21;;;;;;;52.05;37.15;;;3.90;93.10;;;;;;5044520;28;20385;-80
2021/12/06 01:59:49;;;;;;;49.05;34.60;;;3.90;93.10;;;;;;5043803;28;20052;-75
2021/12/06 02:02:14;;;;;;;49.67;36.72;;;3.90;93.10;;;;;;5043567;28;20048;-77
2021/12/06 02:04:41;;;;;;;53.17;37.03;;;3.90;93.00;;;;;;5042426;28;20037;-82
2021/12/06 02:07:12;;;;;;;53.58;38.40;;;3.90;92.90;;;;;;5045738;28;20037;-79
2021/12/06 02:09:38;;;;;;;50.33;35.65;;;3.90;92.90;;;;;;5045608;28;20054;-80
2021/12/06 02:12:04;;;;;;;49.55;34.42;;;3.90;93.00;;;;;;5041597;28;20400;-80
2021/12/06 02:14:44;;;;;;;49.47;35.45;;;3.90;92.90;;;;;;5043452;28;20049;-76
2021/12/06 02:17:18;;;;;;;48.17;35.63;;;3.90;93.00;;;;;;5042287;28;20037;-76
2021/12/06 02:19:48;;;;;;;51.92;36.05;;;3.90;93.00;;;;;;5044710;28;20037;-79
2021/12/06 02:22:23;;;;;;;50.40;34.05;;;3.90;93.00;;;;;;5042816;28;20048;-78
2021/12/06 02:24:51;;;;;;;55.63;36.85;;;3.90;93.00;;;;;;5042775;28;20045;-76
2021/12/06 02:27:17;;;;;;;51.20;35.20;;;3.90;93.00;;;;;;5043395;28;20041;-81
2021/12/06 02:29:46;;;;;;;53.03;34.60;;;3.90;93.00;;;;;;5046612;28;20064;-75
2021/12/06 02:32:13;;;;;;;53.38;35.85;;;3.90;93.00;;;;;;5039584;28;20099;-82
2021/12/06 02:34:41;;;;;;;50.75;35.50;;;3.90;93.00;;;;;;5044180;28;20049;-81
2021/12/06 02:37:08;;;;;;;48.80;32.58;;;3.90;93.10;;;;;;5041200;28;20083;-79
2021/12/06 02:39:35;;;;;;;44.10;30.33;;;4.00;93.10;;;;;;5044554;28;21866;-77
2021/12/06 02:42:01;;;;;;;41.47;29.67;;;4.10;93.10;;;;;;5034396;28;20034;-78
2021/12/06 02:44:28;;;;;;;42.30;30.48;;;4.10;93.10;;;;;;5047567;28;20067;-79
2021/12/06 02:46:54;;;;;;;49.22;32.15;;;4.10;93.10;;;;;;5043173;28;20033;-75
2021/12/06 02:49:20;;;;;;;43.22;29.25;;;4.10;93.10;;;;;;5041316;28;20875;-80
2021/12/06 02:51:45;;;;;;;46.45;32.47;;;4.10;93.20;;;;;;5043414;28;20067;-76
2021/12/06 02:54:11;;;;;;;44.40;31.15;;;4.10;93.20;;;;;;5044524;28;20092;-75
2021/12/06 02:57:18;;;;;;;45.63;30.30;;;4.10;93.20;;;;;;5043449;28;20088;-77
2021/12/06 02:59:44;;;;;;;43.67;30.10;;;4.10;93.20;;;;;;5029073;28;20042;-76
2021/12/06 03:02:14;;;;;;;39.28;30.05;;;4.10;93.20;;;;;;5022959;28;20033;-77
2021/12/06 03:04:41;;;;;;;44.67;29.83;;;4.10;93.20;;;;;;5020762;28;20057;-80
2021/12/06 03:07:08;;;;;;;46.20;31.23;;;4.10;93.20;;;;;;5022567;28;20037;-79
2021/12/06 03:09:38;;;;;;;42.25;30.50;;;4.00;93.00;;;;;;5041745;28;20097;-79
2021/12/06 03:12:10;;;;;;;42.85;31.75;;;4.10;93.10;;;;;;5043561;28;20055;-77
2021/12/06 03:14:43;;;;;;;39.47;29.38;;;4.10;93.20;;;;;;5043262;28;20045;-76
2021/12/06 03:17:11;;;;;;;44.47;30.92;;;4.10;93.20;;;;;;5058316;28;20042;-81
2021/12/06 03:19:38;;;;;;;44.55;29.77;;;4.00;93.10;;;;;;5043442;28;20041;-77
2021/12/06 03:22:06;;;;;;;41.92;29.63;;;4.00;93.10;;;;;;5041110;28;20029;-80
2021/12/06 03:24:32;;;;;;;43.45;31.05;;;4.10;93.10;;;;;;5044466;28;20073;-78
2021/12/06 03:26:58;;;;;;;39.92;30.00;;;4.10;93.10;;;;;;5044429;28;20042;-77
2021/12/06 03:29:23;;;;;;;41.85;31.45;;;4.10;93.00;;;;;;5044305;28;20059;-79
2021/12/06 03:31:50;;;;;;;41.67;29.33;;;4.10;93.00;;;;;;5043105;28;20125;-79
2021/12/06 03:34:17;;;;;;;41.80;28.15;;;4.00;92.90;;;;;;5043902;28;20140;-76
2021/12/06 03:36:43;;;;;;;43.35;29.95;;;4.00;92.90;;;;;;5037822;28;20097;-78
2021/12/06 03:39:20;;;;;;;43.33;30.42;;;4.10;92.90;;;;;;5044034;28;20037;-78
2021/12/06 03:41:47;;;;;;;42.30;29.05;;;4.10;92.90;;;;;;5044323;28;20064;-78
2021/12/06 03:44:13;;;;;;;39.90;27.98;;;4.10;92.90;;;;;;5047422;28;20041;-80
2021/12/06 03:46:40;;;;;;;43.38;30.58;;;4.10;92.90;;;;;;5045445;28;20046;-79
2021/12/06 03:49:14;;;;;;;41.38;28.80;;;4.10;92.90;;;;;;5047015;28;20041;-78
2021/12/06 03:51:41;;;;;;;40.85;29.90;;;4.10;92.90;;;;;;5048492;28;20041;-75
2021/12/06 03:54:08;;;;;;;39.97;29.13;;;4.10;92.90;;;;;;5049151;28;20045;-76
2021/12/06 03:56:39;;;;;;;39.22;28.92;;;4.10;92.90;;;;;;5049611;28;20042;-75
2021/12/06 03:59:05;;;;;;;41.03;29.60;;;4.10;92.90;;;;;;5049883;28;20040;-76
2021/12/06 04:01:31;;;;;;;40.72;28.50;;;4.10;92.80;;;;;;5049000;28;20042;-77
2021/12/06 04:03:58;;;;;;;43.03;29.30;;;4.10;92.90;;;;;;5049176;28;20726;-81
2021/12/06 04:06:24;;;;;;;41.33;29.58;;;4.10;92.90;;;;;;5048670;28;20037;-77
2021/12/06 04:08:50;;;;;;;40.88;28.95;;;4.10;92.80;;;;;;5049398;28;20096;-80
2021/12/06 04:11:15;;;;;;;38.50;28.70;;;4.00;92.80;;;;;;5047109;28;20041;-77
2021/12/06 04:13:41;;;;;;;40.42;29.77;;;4.00;92.80;;;;;;5046222;28;20034;-80
2021/12/06 04:16:07;;;;;;;39.22;28.58;;;4.00;92.80;;;;;;5045838;28;20042;-76
2021/12/06 04:18:33;;;;;;;41.03;29.65;;;4.00;92.70;;;;;;5044497;28;20041;-78
2021/12/06 04:20:59;;;;;;;40.33;29.48;;;4.00;92.80;;;;;;5048414;28;20056;-78
2021/12/06 04:23:25;;;;;;;45.03;29.58;;;4.00;92.80;;;;;;5047921;28;20044;-78
2021/12/06 04:25:51;;;;;;;36.97;27.77;;;3.90;92.80;;;;;;5049657;28;20041;-76
2021/12/06 04:28:19;;;;;;;41.30;30.40;;;3.90;92.70;;;;;;5047547;28;20041;-77
2021/12/06 04:30:46;;;;;;;40.90;29.00;;;3.90;92.80;;;;;;5048147;28;20049;-76
2021/12/06 04:33:12;;;;;;;39.75;29.77;;;3.80;92.80;;;;;;5047279;28;20041;-79
2021/12/06 04:35:38;;;;;;;40.33;29.58;;;3.80;92.80;;;;;;5047948;28;20053;-76
2021/12/06 04:38:05;;;;;;;41.95;30.73;;;3.80;92.80;;;;;;5046846;28;20404;-75
2021/12/06 04:40:31;;;;;;;38.67;28.98;;;3.80;92.90;;;;;;5047176;28;20045;-76
2021/12/06 04:42:56;;;;;;;41.17;30.85;;;3.80;92.90;;;;;;5047254;28;20040;-75
2021/12/06 04:45:23;;;;;;;40.72;29.35;;;3.80;92.90;;;;;;5045652;28;20034;-79
2021/12/06 04:47:50;;;;;;;42.40;30.42;;;3.80;92.90;;;;;;5061611;28;20061;-78
2021/12/06 04:50:18;;;;;;;42.67;29.58;;;3.80;92.90;;;;;;5045254;28;20029;-81
2021/12/06 04:52:45;;;;;;;43.50;29.75;;;3.80;92.90;;;;;;5047717;28;20025;-80
2021/12/06 04:55:29;;;;;;;42.03;31.13;;;3.80;92.90;;;;;;5043780;28;20029;-81
2021/12/06 04:57:55;;;;;;;41.88;30.33;;;3.90;92.80;;;;;;5047095;28;20033;-78
2021/12/06 05:00:34;;;;;;;43.30;30.58;;;3.80;92.90;;;;;;5045833;28;20069;-75
2021/12/06 05:03:00;;;;;;;42.25;30.58;;;3.90;92.90;;;;;;5045405;28;20049;-80
2021/12/06 05:05:54;;;;;;;42.50;30.35;;;3.90;92.80;;;;;;5045485;28;20041;-80
2021/12/06 05:08:25;;;;;;;40.08;29.30;;;3.90;92.90;;;;;;5030363;28;20083;-74
2021/12/06 05:10:53;;;;;;;43.03;30.58;;;3.90;92.90;;;;;;5047903;28;20030;-76
2021/12/06 05:13:20;;;;;;;41.90;29.63;;;3.90;92.80;;;;;;5045909;28;20045;-79
2021/12/06 05:15:46;;;;;;;38.03;29.17;;;4.00;92.80;;;;;;5045081;28;20072;-76
2021/12/06 05:18:12;;;;;;;41.25;31.08;;;4.00;92.80;;;;;;5046406;28;20053;-76
2021/12/06 05:20:38;;;;;;;43.08;31.00;;;3.90;92.70;;;;;;5047403;28;20037;-78
2021/12/06 05:23:05;;;;;;;42.95;30.60;;;4.00;92.80;;;;;;5045381;28;20037;-79
2021/12/06 05:25:32;;;;;;;40.40;30.38;;;4.00;92.70;;;;;;5043670;28;20068;-77
2021/12/06 05:27:59;;;;;;;44.90;31.70;;;4.00;92.70;;;;;;5043532;28;20030;-80
2021/12/06 05:30:27;;;;;;;40.40;30.65;;;4.00;92.70;;;;;;5045075;28;20042;-82
2021/12/06 05:32:54;;;;;;;39.90;29.50;;;3.90;92.70;;;;;;5042782;28;20033;-82
2021/12/06 05:35:20;;;;;;;42.65;32.42;;;3.90;92.70;;;;;;5045644;28;20046;-77
2021/12/06 05:37:49;;;;;;;42.67;31.15;;;3.90;92.60;;;;;;5044524;28;20038;-80
2021/12/06 05:40:25;;;;;;;43.55;31.20;;;3.80;92.60;;;;;;5047617;28;20033;-76
2021/12/06 05:42:52;;;;;;;40.70;29.30;;;3.80;92.50;;;;;;5049673;28;20040;-75
2021/12/06 05:45:21;;;;;;;40.13;28.83;;;3.60;92.50;;;;;;5048725;28;20045;-76
2021/12/06 05:47:46;;;;;;;38.65;28.52;;;3.60;92.50;;;;;;5047679;28;20038;-78
2021/12/06 05:50:13;;;;;;;36.55;27.40;;;3.50;92.60;;;;;;5050022;28;20064;-82
2021/12/06 05:52:39;;;;;;;38.72;28.60;;;3.40;92.60;;;;;;5050194;28;20033;-75
2021/12/06 05:55:07;;;;;;;40.92;30.00;;;3.30;92.70;;;;;;5048679;28;20046;-78
2021/12/06 05:57:33;;;;;;;39.63;29.40;;;3.30;92.80;;;;;;5045117;28;20101;-75
2021/12/06 05:59:58;;;;;;;40.47;30.48;;;3.30;92.90;;;;;;5044539;28;20037;-76
2021/12/06 06:02:24;;;;;;;41.83;31.38;;;3.30;93.00;;;;;;5043568;28;20045;-77
2021/12/06 06:04:50;;;;;;;46.25;32.33;;;3.30;93.20;;;;;;5044745;28;20029;-80
2021/12/06 06:07:16;;;;;;;43.50;31.38;;;3.30;93.30;;;;;;5043959;28;20042;-79
2021/12/06 06:09:42;;;;;;;44.28;31.60;;;3.40;93.30;;;;;;5046054;28;20059;-77
2021/12/06 06:12:08;;;;;;;43.03;30.67;;;3.40;93.30;;;;;;5044669;28;20052;-81
2021/12/06 06:14:34;;;;;;;44.63;32.22;;;3.40;93.30;;;;;;5045336;28;20484;-78
2021/12/06 06:17:13;;;;;;;46.85;33.22;;;3.40;93.30;;;;;;5046150;28;20390;-80
2021/12/06 06:19:43;;;;;;;45.50;31.25;;;3.40;93.30;;;;;;5044759;28;20049;-81
2021/12/06 06:22:09;;;;;;;43.45;32.30;;;3.50;93.30;;;;;;5043371;28;20041;-82
2021/12/06 06:24:35;;;;;;;48.60;35.00;;;3.50;93.30;;;;;;5043595;28;20079;-81
2021/12/06 06:27:01;;;;;;;49.30;34.53;;;3.50;93.30;;;;;;5046301;28;20033;-76
2021/12/06 06:29:27;;;;;;;55.63;42.75;;;3.60;93.30;;;;;;5045279;28;20091;-82
2021/12/06 06:31:53;;;;;;;51.95;39.97;;;3.50;93.20;;;;;;5046772;28;20033;-75
2021/12/06 06:34:19;;;;;;;52.70;37.17;;;3.60;93.20;;;;;;5045441;28;20105;-79
2021/12/06 06:36:46;;;;;;;51.53;37.13;;;3.60;93.20;;;;;;5045632;28;20053;-78
2021/12/06 06:39:12;;;;;;;52.70;37.42;;;3.60;93.20;;;;;;5045122;28;20036;-78
2021/12/06 06:41:38;;;;;;;55.20;36.40;;;3.60;93.20;;;;;;5046599;28;20045;-81
2021/12/06 06:44:04;;;;;;;45.45;34.10;;;3.60;93.20;;;;;;5044106;28;20037;-82
2021/12/06 06:46:30;;;;;;;54.63;37.20;;;3.60;93.20;;;;;;5046261;28;20092;-79
2021/12/06 06:48:57;;;;;;;48.95;33.83;;;3.60;93.20;;;;;;5046872;28;20064;-76
2021/12/06 06:51:24;;;;;;;47.60;33.92;;;3.70;93.20;;;;;;5046320;28;20057;-81
2021/12/06 06:53:50;;;;;;;54.17;36.85;;;3.60;93.20;;;;;;5048768;28;20041;-81
2021/12/06 06:56:16;;;;;;;47.95;36.05;;;3.70;93.20;;;;;;5044399;28;20496;-76
2021/12/06 06:58:42;;;;;;;51.88;37.83;;;3.70;93.20;;;;;;5041309;28;20093;-83
2021/12/06 07:01:07;;;;;;;52.55;37.00;;;3.60;93.10;;;;;;5035992;28;20041;-80
2021/12/06 07:03:33;;;;;;;46.67;35.95;;;3.60;93.20;;;;;;5045385;28;20065;-80
2021/12/06 07:06:00;;;;;;;51.28;36.53;;;3.60;93.20;;;;;;5045091;28;20101;-80
2021/12/06 07:08:26;;;;;;;50.80;34.65;;;3.60;93.10;;;;;;5044300;28;20041;-76
2021/12/06 07:10:54;;;;;;;54.78;37.50;;;3.60;93.20;;;;;;5046468;28;20041;-81
2021/12/06 07:13:19;;;;;;;47.63;34.10;;;3.70;93.10;;;;;;5046685;28;20057;-78
2021/12/06 07:15:45;;;;;;;46.30;34.55;;;3.60;93.20;;;;;;5045482;28;20045;-80
2021/12/06 07:18:11;;;;;;;49.80;35.17;;;3.60;93.20;;;;;;5047064;28;20050;-81
2021/12/06 07:20:36;;;;;;;52.28;35.13;;;3.60;93.20;;;;;;5049421;28;20041;-80
2021/12/06 07:23:03;;;;;;;51.60;36.58;;;3.60;93.20;;;;;;5050803;28;20033;-80
2021/12/06 07:25:30;;;;;;;48.95;35.13;;;3.60;93.10;;;;;;5050630;28;20075;-82
2021/12/06 07:27:58;;;;;;;51.28;37.78;;;3.60;93.10;;;;;;5050420;28;20048;-82
2021/12/06 07:30:23;;;;;;;53.88;36.60;;;3.60;93.10;;;;;;5049947;28;20093;-80
2021/12/06 07:32:52;;;;;;;52.72;37.45;;;3.60;93.10;;;;;;5050816;28;20068;-81
2021/12/06 07:35:18;;;;;;;46.10;33.50;;;3.50;93.00;;;;;;5049827;28;20056;-82
2021/12/06 07:37:44;;;;;;;51.83;34.88;;;3.40;93.00;;;;;;5049942;28;20039;-82
2021/12/06 07:40:12;;;;;;;45.05;34.05;;;3.30;93.00;;;;;;5048264;28;20052;-79
2021/12/06 07:42:38;;;;;;;49.22;34.67;;;3.30;93.00;;;;;;5046591;28;20048;-77
2021/12/06 07:45:05;;;;;;;47.35;33.25;;;3.30;93.00;;;;;;5044846;28;20037;-78
2021/12/06 07:47:31;;;;;;;46.67;33.65;;;3.20;93.10;;;;;;5042009;28;20038;-77
2021/12/06 07:49:57;;;;;;;42.22;31.83;;;3.10;93.10;;;;;;5045010;28;20049;-77
2021/12/06 07:52:23;;;;;;;43.60;32.42;;;3.10;93.20;;;;;;5042345;28;20630;-80
2021/12/06 07:54:48;;;;;;;47.33;33.22;;;3.10;93.20;;;;;;5030771;28;20042;-75
2021/12/06 07:57:14;;;;;;;48.25;34.53;;;3.10;93.20;;;;;;5040411;28;20030;-81
2021/12/06 07:59:40;;;;;;;48.38;33.22;;;3.10;93.30;;;;;;5043814;28;20045;-77
2021/12/06 08:02:09;;;;;;;46.50;34.13;;;3.00;93.30;;;;;;5042890;28;20037;-78
2021/12/06 08:04:35;;;;;;;44.63;32.95;;;3.00;93.30;;;;;;5044103;28;20041;-79
2021/12/06 08:07:01;;;;;;;50.53;34.65;;;3.00;93.30;;;;;;5043799;28;20070;-75
2021/12/06 08:09:26;;;;;;;45.97;32.90;;;3.00;93.40;;;;;;5041145;28;20041;-81
2021/12/06 08:11:53;;;;;;;48.90;34.35;;;3.00;93.40;;;;;;5045889;28;20069;-78
2021/12/06 08:14:19;;;;;;;44.63;32.35;;;3.00;93.40;;;;;;5042114;28;20037;-76
2021/12/06 08:16:46;;;;;;;47.00;34.13;;;3.00;93.40;;;;;;5042819;28;20040;-73
2021/12/06 08:19:12;;;;;;;47.00;34.47;;;3.00;93.40;;;;;;5040417;28;20057;-75
2021/12/06 08:21:38;;;;;;;48.15;34.15;;;3.10;93.50;;;;;;5045001;28;20057;-75
2021/12/06 08:24:05;;;;;;;47.72;36.28;;;3.10;93.50;;;;;;5042225;28;20041;-76
2021/12/06 08:26:36;;;;;;;53.95;39.17;;;3.10;93.40;;;;;;5040056;28;20071;-76
2021/12/06 08:29:06;;;;;;;55.85;39.63;;;3.10;93.40;;;;;;5041890;28;20117;-74
2021/12/06 08:31:33;;;;;;;50.00;35.58;;;3.20;93.40;;;;;;5039816;28;20046;-73
2021/12/06 08:33:59;;;;;;;50.38;36.33;;;3.20;93.40;;;;;;5041442;28;20053;-73
2021/12/06 08:36:25;;;;;;;46.35;33.78;;;3.30;93.40;;;;;;5040939;28;20033;-75
2021/12/06 08:38:51;;;;;;;45.53;34.10;;;3.40;93.40;;;;;;5039428;28;20091;-71
2021/12/06 08:41:23;;;;;;;48.95;35.35;;;3.50;93.40;;;;;;5036931;28;20045;-73
2021/12/06 08:43:50;;;;;;;50.80;36.67;;;3.60;93.30;;;;;;5034349;28;20118;-73
2021/12/06 08:46:22;;;;;;;49.55;37.45;;;3.60;93.20;;;;;;5037716;28;20060;-73
2021/12/06 08:48:49;;;;;;;49.35;36.22;;;3.70;93.10;;;;;;5041256;28;20095;-75
2021/12/06 08:51:44;;;;;;;47.75;36.35;;;3.80;93.00;;;;;;5037536;28;20034;-74
2021/12/06 08:54:12;;;;;;;50.67;38.00;;;3.90;92.90;;;;;;5041728;28;20049;-76
2021/12/06 08:56:38;;;;;;;56.15;42.92;;;4.00;92.70;;;;;;5036562;28;20076;-75
2021/12/06 08:59:05;;;;;;;50.15;38.10;;;4.10;92.20;;;;;;5032046;28;20044;-75
2021/12/06 09:01:32;;;;;;;53.58;38.90;;;4.10;92.00;;;;;;5020058;28;20041;-73
2021/12/06 09:03:58;;;;;;;53.83;39.85;;;4.20;91.80;;;;;;5028707;28;20068;-73
2021/12/06 09:06:24;;;;;;;55.72;39.45;;;4.20;91.50;;;;;;5021587;28;20038;-72
2021/12/06 09:08:50;;;;;;;58.67;40.08;;;4.40;91.40;;;;;;5036165;28;20056;-74
2021/12/06 09:11:16;;;;;;;54.50;40.00;;;4.30;91.10;;;;;;5022281;28;20034;-72
2021/12/06 09:13:42;;;;;;;56.30;40.83;;;4.50;91.00;;;;;;5039000;28;20068;-72
2021/12/06 09:16:10;;;;;;;62.17;42.30;;;4.50;90.70;;;;;;5040143;28;20050;-73
2021/12/06 09:18:38;;;;;;;60.40;43.03;;;4.50;90.60;;;;;;5039681;28;20048;-72
2021/12/06 09:21:08;;;;;;;66.13;45.15;;;4.50;90.80;;;;;;5041030;28;20037;-73
2021/12/06 09:23:34;;;;;;;63.10;44.38;;;4.40;90.90;;;;;;5041243;28;20040;-73
2021/12/06 09:26:01;;;;;;;61.30;41.97;;;4.50;90.90;;;;;;5041139;28;20559;-73
2021/12/06 09:28:28;;;;;;;61.42;42.22;;;4.60;90.80;;;;;;5039785;28;20141;-71
2021/12/06 09:30:54;;;;;;;62.58;44.08;;;4.60;90.70;;;;;;5041018;28;20093;-72
2021/12/06 09:33:20;;;;;;;64.65;44.40;;;4.60;90.80;;;;;;5038383;28;20369;-73
2021/12/06 09:35:48;;;;;;;63.63;44.30;;;4.60;90.60;;;;;;5041065;28;20253;-73
2021/12/06 09:38:17;;;;;;;65.03;46.30;;;4.60;90.70;;;;;;5038664;28;20109;-72
2021/12/06 09:40:47;;;;;;;63.13;44.20;;;4.60;90.70;;;;;;5039324;28;20132;-72
2021/12/06 09:43:14;;;;;;;67.00;44.60;;;4.70;90.80;;;;;;5034501;28;20105;-73
2021/12/06 09:45:41;;;;;;;67.97;45.83;;;4.70;90.60;;;;;;5037535;28;20037;-72
2021/12/06 09:48:08;;;;;;;65.53;44.55;;;4.70;90.50;;;;;;5034666;28;20033;-72
2021/12/06 09:50:42;;;;;;;60.95;42.78;;;4.60;90.20;;;;;;5035390;28;20049;-76
2021/12/06 09:53:11;;;;;;;59.70;44.55;;;4.70;90.20;;;;;;5039843;28;20038;-75
2021/12/06 09:55:38;;;;;;;63.58;41.53;;;4.70;89.90;;;;;;5034067;28;20045;-74
2021/12/06 09:58:05;;;;;;;63.67;44.20;;;4.70;90.00;;;;;;5039208;28;20025;-76
2021/12/06 10:00:34;;;;;;;60.70;43.22;;;4.80;90.20;;;;;;5037414;28;20033;-74
2021/12/06 10:03:00;;;;;;;57.10;40.92;;;4.90;90.00;;;;;;5033641;28;20542;-74
2021/12/06 10:05:29;;;;;;;60.30;41.92;;;4.90;89.40;;;;;;5037085;28;20064;-73
2021/12/06 10:07:57;;;;;;;56.97;40.17;;;4.70;89.30;;;;;;5041854;28;20033;-74
2021/12/06 10:10:26;;;;;;;55.70;41.28;;;4.70;89.30;;;;;;5039974;28;20041;-73
2021/12/06 10:12:54;;;;;;;63.92;43.70;;;4.60;89.30;;;;;;5035990;28;20078;-74
2021/12/06 10:15:25;;;;;;;64.18;42.28;;;4.70;89.60;;;;;;5038378;28;20099;-72
2021/12/06 10:17:52;;;;;;;61.95;45.33;;;4.80;89.70;;;;;;5041566;28;20093;-74
2021/12/06 10:20:18;;;;;;;61.08;43.65;;;4.90;89.40;;;;;;5041900;28;20029;-73
2021/12/06 10:22:43;;;;;;;59.08;42.85;;;5.00;89.10;;;;;;5041323;28;20038;-75
2021/12/06 10:25:09;;;;;;;57.78;42.17;;;5.10;88.80;;;;;;5039752;28;20033;-74
2021/12/06 10:27:35;;;;;;;65.32;43.85;;;5.30;88.80;;;;;;5040763;28;20037;-73
2021/12/06 10:30:07;;;;;;;58.67;41.65;;;5.30;88.00;;;;;;5041831;28;20030;-74
2021/12/06 10:32:36;;;;;;;62.67;42.47;;;5.40;87.40;;;;;;5041305;28;20048;-73
2021/12/06 10:35:12;;;;;;;60.38;43.40;;;5.40;87.10;;;;;;5031285;28;20045;-74
2021/12/06 10:37:45;;;;;;;66.20;45.03;;;5.60;87.00;;;;;;5024142;28;20041;-74
2021/12/06 10:40:23;;;;;;;66.03;44.65;;;5.50;86.60;;;;;;5036650;28;20083;-74
2021/12/06 10:42:51;;;;;;;72.32;47.03;;;5.50;86.90;;;;;;5040814;28;20034;-75
2021/12/06 10:45:21;;;;;;;75.18;45.85;;;5.60;87.00;;;;;;5038898;28;20049;-74
2021/12/06 10:48:11;;;;;;;78.57;47.20;;;5.60;86.50;;;;;;5039835;28;20033;-74
2021/12/06 10:50:44;;;;;;;78.18;48.72;;;5.70;86.50;;;;;;5039854;28;20041;-74
2021/12/06 10:53:11;;;;;;;84.72;50.60;;;5.80;86.20;;;;;;5033693;28;20041;-72
2021/12/06 10:55:38;;;;;;;81.40;48.65;;;6.00;86.30;;;;;;5039623;28;20041;-74
2021/12/06 10:58:16;;;;;;;80.03;49.92;;;6.20;85.40;;;;;;5040224;28;20044;-74
2021/12/06 11:01:10;;;;;;;80.95;47.08;;;6.40;85.20;;;;;;5040688;28;20029;-73
2021/12/06 11:03:45;;;;;;;77.45;46.83;;;6.40;84.80;;;;;;5029578;28;20045;-74
2021/12/06 11:06:19;;;;;;;;;;;6.60;84.10;;;;;;5031469;28;20029;-73
2021/12/06 11:08:47;;;;;;;70.53;43.25;;;6.10;83.80;;;;;;5038996;28;19981;-73
2021/12/06 11:11:16;;;;;;;101.25;47.58;;;6.10;84.70;;;;;;5040635;28;20048;-74
2021/12/06 11:13:48;;;;;;;80.05;46.25;;;6.30;84.70;;;;;;5043496;28;20037;-72
2021/12/06 11:16:18;;;;;;;72.95;44.17;;;6.40;84.70;;;;;;5041938;28;20029;-73
2021/12/06 11:18:52;;;;;;;62.38;41.35;;;6.50;84.00;;;;;;5034427;28;20030;-71
2021/12/06 11:21:23;;;;;;;63.90;40.95;;;6.50;83.80;;;;;;5039263;28;20110;-72
2021/12/06 11:24:01;;;;;;;59.92;39.30;;;6.50;83.30;;;;;;5041848;28;20097;-72
2021/12/06 11:26:29;;;;;;;56.50;36.92;;;6.50;83.80;;;;;;5039767;28;20033;-72
2021/12/06 11:28:55;;;;;;;50.95;34.33;;;6.50;82.90;;;;;;5038228;28;20033;-74
2021/12/06 11:31:21;;;;;;;51.03;33.13;;;6.60;82.20;;;;;;5039780;28;20037;-72
2021/12/06 11:34:03;;;;;;;50.22;34.63;;;6.60;82.20;;;;;;5035015;28;20373;-72
2021/12/06 11:36:31;;;;;;;48.10;33.53;;;6.60;82.20;;;;;;5030482;28;20061;-71
2021/12/06 11:39:15;;;;;;;48.28;32.08;;;6.40;81.90;;;;;;5039472;28;20556;-73
2021/12/06 11:41:45;;;;;;;52.40;33.55;;;6.10;82.30;;;;;;5025174;28;20501;-72
2021/12/06 11:44:14;;;;;;;55.00;35.30;;;6.10;82.70;;;;;;5032532;28;20037;-72
2021/12/06 11:46:40;;;;;;;53.28;34.95;;;6.10;83.10;;;;;;5035293;28;20029;-72
2021/12/06 11:49:21;;;;;;;53.22;35.63;;;6.20;83.10;;;;;;5035482;28;20044;-73
2021/12/06 11:51:50;;;;;;;56.13;36.38;;;6.10;83.00;;;;;;5036330;28;20097;-73
2021/12/06 11:54:16;;;;;;;56.83;36.55;;;6.10;83.60;;;;;;5035703;28;20044;-73
2021/12/06 11:56:48;;;;;;;52.25;37.75;;;6.10;83.60;;;;;;5036674;28;20057;-73
2021/12/06 11:59:16;;;;;;;56.83;37.67;;;6.10;83.10;;;;;;5035772;28;20041;-73
2021/12/06 12:01:44;;;;;;;58.80;37.58;;;6.10;83.30;;;;;;5036182;28;20095;-71
2021/12/06 12:04:11;;;;;;;54.67;38.05;;;6.10;83.50;;;;;;5038004;28;20034;-71
2021/12/06 12:07:03;;;;;;;56.55;37.70;;;6.10;83.80;;;;;;5039598;28;20079;-73
2021/12/06 12:09:34;;;;;;;54.75;37.72;;;6.20;83.70;;;;;;5026517;28;20041;-72
2021/12/06 12:12:06;;;;;;;54.88;38.58;;;6.20;84.00;;;;;;5041310;28;20049;-74
2021/12/06 12:14:40;;;;;;;58.67;39.70;;;6.30;84.00;;;;;;5040848;28;20180;-71
2021/12/06 12:17:20;;;;;;;60.05;38.80;;;6.20;84.10;;;;;;5040607;28;20041;-73
2021/12/06 12:19:53;;;;;;;53.65;36.95;;;6.20;84.30;;;;;;5041864;28;20034;-74
2021/12/06 12:22:19;;;;;;;56.30;38.80;;;6.20;84.50;;;;;;5040916;28;20045;-72
2021/12/06 12:24:49;;;;;;;57.17;38.53;;;6.20;84.80;;;;;;5039675;28;20416;-73
2021/12/06 12:27:39;;;;;;;52.25;36.10;;;6.20;84.90;;;;;;5040658;28;20033;-71
2021/12/06 12:30:06;;;;;;;49.63;34.42;;;6.40;84.80;;;;;;5038298;28;20511;-72
2021/12/06 12:32:32;;;;;;;45.25;32.90;;;6.30;84.40;;;;;;5041725;28;20129;-71
2021/12/06 12:35:03;;;;;;;46.30;33.95;;;6.30;84.30;;;;;;5041173;28;20060;-71
2021/12/06 12:37:33;;;;;;;46.95;32.95;;;6.40;84.20;;;;;;5031578;28;20065;-72
2021/12/06 12:40:01;;;;;;;47.80;33.60;;;6.40;84.20;;;;;;5040100;28;20048;-72
2021/12/06 12:42:28;;;;;;;46.58;32.20;;;6.50;84.10;;;;;;5033070;28;20045;-72
2021/12/06 12:44:56;;;;;;;45.08;32.47;;;6.50;84.30;;;;;;5038984;28;20045;-72
2021/12/06 12:47:28;;;;;;;41.95;29.88;;;6.50;84.00;;;;;;5031392;28;20045;-74
2021/12/06 12:50:17;;;;;;;42.10;29.95;;;6.50;83.90;;;;;;5038300;28;20038;-73
2021/12/06 12:52:51;;;;;;;39.70;28.00;;;6.50;83.50;;;;;;5043918;28;20042;-73
2021/12/06 12:55:22;;;;;;;41.08;29.45;;;6.40;83.00;;;;;;5042230;28;20033;-70